createdAt,value
2018-07-26T00:01:35.600Z,99.90
2018-07-26T00:04:04.805Z,99.90
2018-07-26T00:06:34.059Z,99.90
2018-07-26T00:09:04.425Z,99.90
2018-07-26T00:11:33.677Z,99.90
2018-07-26T00:14:02.522Z,99.90
2018-07-26T00:16:32.070Z,99.90
2018-07-26T00:19:01.274Z,99.90
2018-07-26T00:21:30.453Z,99.90
2018-07-26T00:23:59.502Z,99.90
2018-07-26T00:26:29.023Z,99.90
2018-07-26T00:28:58.578Z,99.90
2018-07-26T00:31:27.787Z,99.90
2018-07-26T00:33:56.676Z,99.90
2018-07-26T00:36:26.265Z,99.90
2018-07-26T00:38:55.803Z,99.90
2018-07-26T00:41:24.741Z,99.90
2018-07-26T00:43:54.371Z,99.90
2018-07-26T00:46:23.623Z,99.90
2018-07-26T00:48:53.243Z,99.90
2018-07-26T00:51:22.700Z,99.90
2018-07-26T00:53:52.294Z,99.90
2018-07-26T00:56:22.383Z,99.90
2018-07-26T00:58:51.890Z,99.90
2018-07-26T01:01:22.006Z,99.90
2018-07-26T01:03:51.203Z,99.90
2018-07-26T01:08:48.653Z,99.90
2018-07-26T01:11:17.498Z,99.90
2018-07-26T01:13:46.758Z,99.90
2018-07-26T01:16:15.921Z,99.90
2018-07-26T01:18:45.504Z,99.90
2018-07-26T01:21:14.709Z,99.90
2018-07-26T01:23:44.235Z,99.90
2018-07-26T01:26:13.580Z,99.90
2018-07-26T01:28:43.110Z,99.90
2018-07-26T01:31:12.298Z,99.90
2018-07-26T01:33:42.254Z,99.90
2018-07-26T01:36:11.464Z,99.90
2018-07-26T01:38:40.344Z,99.90
2018-07-26T01:41:09.200Z,99.90
2018-07-26T01:43:50.739Z,99.90
2018-07-26T01:46:20.689Z,99.90
2018-07-26T01:48:49.969Z,99.90
2018-07-26T01:51:19.106Z,99.90
2018-07-26T01:53:48.020Z,99.90
2018-07-26T01:56:17.194Z,99.90
2018-07-26T01:58:46.371Z,99.90
2018-07-26T02:01:15.213Z,99.90
2018-07-26T02:03:44.097Z,99.90
2018-07-26T02:06:13.237Z,99.90
2018-07-26T02:08:42.180Z,99.90
2018-07-26T02:11:11.730Z,99.90
2018-07-26T02:13:40.943Z,99.90
2018-07-26T02:16:10.146Z,99.90
2018-07-26T02:18:39.431Z,99.90
2018-07-26T02:21:08.291Z,99.90
2018-07-26T02:23:37.800Z,99.90
2018-07-26T02:26:07.092Z,99.90
2018-07-26T02:28:36.370Z,99.90
2018-07-26T02:31:05.253Z,99.90
2018-07-26T02:33:34.914Z,99.90
2018-07-26T02:36:04.393Z,99.90
2018-07-26T02:38:33.927Z,99.90
2018-07-26T02:41:02.806Z,99.90
2018-07-26T02:43:32.323Z,99.90
2018-07-26T02:46:01.225Z,99.90
2018-07-26T02:48:30.762Z,99.90
2018-07-26T02:50:59.626Z,99.90
2018-07-26T02:53:28.945Z,99.90
2018-07-26T02:55:57.812Z,99.90
2018-07-26T02:58:27.334Z,99.90
2018-07-26T03:00:56.875Z,99.90
2018-07-26T03:03:26.077Z,99.90
2018-07-26T03:05:55.411Z,99.90
2018-07-26T03:08:24.973Z,99.90
2018-07-26T03:10:54.242Z,99.90
2018-07-26T03:13:23.838Z,99.90
2018-07-26T03:15:52.997Z,99.90
2018-07-26T03:18:22.252Z,99.90
2018-07-26T03:23:20.940Z,99.90
2018-07-26T03:25:50.157Z,99.90
2018-07-26T03:28:19.699Z,99.90
2018-07-26T03:30:49.246Z,99.90
2018-07-26T03:33:18.147Z,99.90
2018-07-26T03:35:47.710Z,99.90
2018-07-26T03:38:16.968Z,99.90
2018-07-26T03:40:46.221Z,99.90
2018-07-26T03:43:15.784Z,99.90
2018-07-26T03:45:45.002Z,99.90
2018-07-26T03:48:14.503Z,99.90
2018-07-26T03:50:43.404Z,99.90
2018-07-26T03:53:13.159Z,99.90
2018-07-26T03:55:42.625Z,99.90
2018-07-26T03:58:11.575Z,99.90
2018-07-26T04:00:41.121Z,99.90
2018-07-26T04:03:10.678Z,99.90
2018-07-26T04:05:39.844Z,99.90
2018-07-26T04:08:09.080Z,99.90
2018-07-26T04:10:38.496Z,99.90
2018-07-26T04:13:07.591Z,99.90
2018-07-26T04:15:36.796Z,99.90
2018-07-26T04:18:06.786Z,99.90
2018-07-26T04:20:36.540Z,99.90
2018-07-26T04:23:05.743Z,99.90
2018-07-26T04:25:35.263Z,99.90
2018-07-26T04:28:04.498Z,99.90
2018-07-26T04:30:34.098Z,99.90
2018-07-26T04:33:03.267Z,99.90
2018-07-26T04:35:32.549Z,99.90
2018-07-26T04:38:02.115Z,99.90
2018-07-26T04:40:31.723Z,99.90
2018-07-26T04:43:00.658Z,99.90
2018-07-26T04:45:31.381Z,99.90
2018-07-26T04:48:00.576Z,99.90
2018-07-26T04:50:29.430Z,99.90
2018-07-26T04:52:58.395Z,99.90
2018-07-26T04:55:27.669Z,99.90
2018-07-26T04:57:56.862Z,99.90
2018-07-26T05:00:25.793Z,99.90
2018-07-26T05:02:54.916Z,99.90
2018-07-26T05:05:24.575Z,99.90
2018-07-26T05:07:54.159Z,99.90
2018-07-26T05:10:23.702Z,99.90
2018-07-26T05:12:52.902Z,99.90
2018-07-26T05:15:22.089Z,99.90
2018-07-26T05:17:51.346Z,99.90
2018-07-26T05:20:20.499Z,99.90
2018-07-26T05:22:49.834Z,99.90
2018-07-26T05:25:20.072Z,99.90
2018-07-26T05:27:49.187Z,99.90
2018-07-26T05:30:18.728Z,99.90
2018-07-26T05:32:47.950Z,99.90
2018-07-26T05:35:16.952Z,99.90
2018-07-26T05:37:45.884Z,99.90
2018-07-26T05:42:43.464Z,99.90
2018-07-26T05:45:12.709Z,99.90
2018-07-26T05:47:42.006Z,99.90
2018-07-26T05:50:11.231Z,99.90
2018-07-26T05:52:40.945Z,99.90
2018-07-26T05:55:10.915Z,99.90
2018-07-26T05:57:40.467Z,99.90
2018-07-26T06:00:11.691Z,99.90
2018-07-26T06:02:40.934Z,99.90
2018-07-26T06:05:10.519Z,99.90
2018-07-26T06:07:39.850Z,99.90
2018-07-26T06:10:09.686Z,99.90
2018-07-26T06:12:38.558Z,99.90
2018-07-26T06:15:10.229Z,99.90
2018-07-26T06:17:39.605Z,99.90
2018-07-26T06:20:10.258Z,99.90
2018-07-26T06:22:40.008Z,99.90
2018-07-26T06:25:09.555Z,99.90
2018-07-26T06:27:38.744Z,99.90
2018-07-26T06:30:11.232Z,99.90
2018-07-26T06:32:41.007Z,99.90
2018-07-26T06:35:10.422Z,99.90
2018-07-26T06:37:40.116Z,99.90
2018-07-26T06:40:09.007Z,99.90
2018-07-26T06:42:38.182Z,99.90
2018-07-26T06:45:07.913Z,99.90
2018-07-26T06:47:37.543Z,99.90
2018-07-26T06:50:07.797Z,99.90
2018-07-26T06:55:12.220Z,99.90
2018-07-26T06:57:41.538Z,99.90
2018-07-26T07:00:10.658Z,99.20
2018-07-26T07:02:40.565Z,99.00
2018-07-26T07:05:10.434Z,98.50
2018-07-26T07:07:40.024Z,98.40
2018-07-26T07:10:09.084Z,97.20
2018-07-26T07:12:38.111Z,97.30
2018-07-26T07:15:06.949Z,97.00
2018-07-26T07:17:35.915Z,96.20
2018-07-26T07:20:05.380Z,94.60
2018-07-26T07:22:34.323Z,94.90
2018-07-26T07:25:03.427Z,93.70
2018-07-26T07:27:32.691Z,93.30
2018-07-26T07:30:01.989Z,92.80
2018-07-26T07:32:31.244Z,93.20
2018-07-26T07:35:01.035Z,91.50
2018-07-26T07:37:31.217Z,91.00
2018-07-26T07:40:00.931Z,90.90
2018-07-26T07:42:30.434Z,89.80
2018-07-26T07:44:59.994Z,89.10
2018-07-26T07:47:28.907Z,84.90
2018-07-26T07:49:57.999Z,84.30
2018-07-26T07:52:27.509Z,83.60
2018-07-26T07:54:57.243Z,80.20
2018-07-26T07:57:26.528Z,78.80
2018-07-26T07:59:56.139Z,79.90
2018-07-26T08:02:26.477Z,78.90
2018-07-26T08:04:56.109Z,77.20
2018-07-26T08:07:25.674Z,76.60
2018-07-26T08:09:54.598Z,73.60
2018-07-26T08:14:53.156Z,72.50
2018-07-26T08:17:22.513Z,70.60
2018-07-26T08:19:51.748Z,69.90
2018-07-26T08:22:21.066Z,68.20
2018-07-26T08:24:50.318Z,67.20
2018-07-26T08:27:19.524Z,66.40
2018-07-26T08:29:48.429Z,66.70
2018-07-26T08:32:17.788Z,66.30
2018-07-26T08:34:46.836Z,67.00
2018-07-26T08:37:15.718Z,63.30
2018-07-26T08:39:44.611Z,63.50
2018-07-26T08:42:13.943Z,62.50
2018-07-26T08:44:43.017Z,61.60
2018-07-26T08:47:12.221Z,61.00
2018-07-26T08:49:41.456Z,61.80
2018-07-26T08:52:10.670Z,59.80
2018-07-26T08:54:40.043Z,58.60
2018-07-26T08:57:09.237Z,59.00
2018-07-26T08:59:38.142Z,59.00
2018-07-26T09:02:07.425Z,58.70
2018-07-26T09:04:36.619Z,59.50
2018-07-26T09:07:06.008Z,58.70
2018-07-26T09:09:35.558Z,58.00
2018-07-26T09:12:04.786Z,56.60
2018-07-26T09:14:34.953Z,55.70
2018-07-26T09:17:03.966Z,54.30
2018-07-26T09:19:33.189Z,54.30
2018-07-26T09:22:02.784Z,54.50
2018-07-26T09:24:31.662Z,54.70
2018-07-26T09:27:00.706Z,54.80
2018-07-26T09:29:29.940Z,54.40
2018-07-26T09:31:59.248Z,53.70
2018-07-26T09:34:28.815Z,53.20
2018-07-26T09:36:58.084Z,52.80
2018-07-26T09:39:27.323Z,50.80
2018-07-26T09:41:56.186Z,49.70
2018-07-26T09:44:25.462Z,49.00
2018-07-26T09:46:54.900Z,49.80
2018-07-26T09:49:24.282Z,50.90
2018-07-26T09:51:54.097Z,50.50
2018-07-26T09:54:23.763Z,51.60
2018-07-26T09:56:53.376Z,49.60
2018-07-26T09:59:22.902Z,49.00
2018-07-26T10:01:52.464Z,47.00
2018-07-26T10:04:21.499Z,46.30
2018-07-26T10:06:51.178Z,47.10
2018-07-26T10:09:20.896Z,47.10
2018-07-26T10:11:50.226Z,47.10
2018-07-26T10:14:19.558Z,46.90
2018-07-26T10:16:48.368Z,46.60
2018-07-26T10:19:17.757Z,45.70
2018-07-26T10:21:47.472Z,44.20
2018-07-26T10:24:17.154Z,44.80
2018-07-26T10:26:46.391Z,44.80
2018-07-26T10:29:15.692Z,42.80
2018-07-26T10:31:45.221Z,41.90
2018-07-26T10:34:14.148Z,41.00
2018-07-26T10:36:43.031Z,40.50
2018-07-26T10:39:13.033Z,41.70
2018-07-26T10:41:42.588Z,40.80
2018-07-26T10:44:11.636Z,38.40
2018-07-26T10:46:40.901Z,38.70
2018-07-26T10:49:10.524Z,38.00
2018-07-26T10:51:40.058Z,39.10
2018-07-26T10:54:08.951Z,37.50
2018-07-26T10:56:38.530Z,36.80
2018-07-26T10:59:08.069Z,36.50
2018-07-26T11:01:36.990Z,36.50
2018-07-26T11:04:06.023Z,35.30
2018-07-26T11:06:35.590Z,35.90
2018-07-26T11:09:07.711Z,35.00
2018-07-26T11:11:37.557Z,34.60
2018-07-26T11:14:07.745Z,34.90
2018-07-26T11:16:37.336Z,34.80
2018-07-26T11:19:07.606Z,35.30
2018-07-26T11:21:36.958Z,35.10
2018-07-26T11:24:06.160Z,35.10
2018-07-26T11:26:36.147Z,35.30
2018-07-26T11:31:34.571Z,35.40
2018-07-26T11:34:03.870Z,34.40
2018-07-26T11:36:33.091Z,34.00
2018-07-26T11:39:03.007Z,33.90
2018-07-26T11:41:32.351Z,34.10
2018-07-26T11:44:01.989Z,34.20
2018-07-26T11:46:31.481Z,33.40
2018-07-26T11:49:00.640Z,34.40
2018-07-26T11:51:30.009Z,34.80
2018-07-26T11:53:59.653Z,35.50
2018-07-26T11:56:29.167Z,35.00
2018-07-26T11:58:58.997Z,33.60
2018-07-26T12:01:28.991Z,32.90
2018-07-26T12:03:59.010Z,33.20
2018-07-26T12:06:28.749Z,34.40
2018-07-26T12:08:58.449Z,32.90
2018-07-26T12:11:27.995Z,33.20
2018-07-26T12:13:57.438Z,32.30
2018-07-26T12:16:27.320Z,32.50
2018-07-26T12:18:57.184Z,32.60
2018-07-26T12:21:26.412Z,32.10
2018-07-26T12:23:55.946Z,31.90
2018-07-26T12:26:25.409Z,31.40
2018-07-26T12:28:55.230Z,31.10
2018-07-26T12:31:24.741Z,31.20
2018-07-26T12:33:54.601Z,31.60
2018-07-26T12:36:24.045Z,32.10
2018-07-26T12:38:53.471Z,31.40
2018-07-26T12:41:23.260Z,30.80
2018-07-26T12:43:53.020Z,30.50
2018-07-26T12:46:23.139Z,30.00
2018-07-26T12:48:53.237Z,30.30
2018-07-26T12:51:23.343Z,29.90
2018-07-26T12:53:52.538Z,30.00
2018-07-26T12:56:22.019Z,30.00
2018-07-26T12:58:51.549Z,29.60
2018-07-26T13:01:21.202Z,29.30
2018-07-26T13:03:50.705Z,29.30
2018-07-26T13:06:21.539Z,29.50
2018-07-26T13:08:51.905Z,29.20
2018-07-26T13:11:21.999Z,28.60
2018-07-26T13:13:51.534Z,29.30
2018-07-26T13:16:21.004Z,29.10
2018-07-26T13:18:50.375Z,28.60
2018-07-26T13:21:20.216Z,28.00
2018-07-26T13:23:49.526Z,28.50
2018-07-26T13:26:19.557Z,29.40
2018-07-26T13:28:49.580Z,29.90
2018-07-26T13:31:19.324Z,30.00
2018-07-26T13:33:49.337Z,30.00
2018-07-26T13:36:18.843Z,30.40
2018-07-26T13:38:48.903Z,29.50
2018-07-26T13:41:19.143Z,30.00
2018-07-26T13:43:49.120Z,30.30
2018-07-26T13:46:19.294Z,30.30
2018-07-26T13:48:49.166Z,30.40
2018-07-26T13:51:18.759Z,30.00
2018-07-26T13:53:48.337Z,31.50
2018-07-26T13:56:18.589Z,31.70
2018-07-26T13:58:47.958Z,31.50
2018-07-26T14:01:17.203Z,32.00
2018-07-26T14:03:46.833Z,32.00
2018-07-26T14:06:16.481Z,32.40
2018-07-26T14:08:46.320Z,31.80
2018-07-26T14:11:15.798Z,31.90
2018-07-26T14:13:45.723Z,30.70
2018-07-26T14:16:15.313Z,30.70
2018-07-26T14:18:44.805Z,32.00
2018-07-26T14:21:14.069Z,32.70
2018-07-26T14:23:43.519Z,34.00
2018-07-26T14:26:13.767Z,34.70
2018-07-26T14:28:43.355Z,36.00
2018-07-26T14:31:12.766Z,37.00
2018-07-26T14:33:42.333Z,36.90
2018-07-26T14:36:12.151Z,37.30
2018-07-26T14:38:41.422Z,38.00
2018-07-26T14:41:10.590Z,39.20
2018-07-26T14:43:40.553Z,39.60
2018-07-26T14:46:09.885Z,40.00
2018-07-26T14:48:39.907Z,40.20
2018-07-26T14:51:08.794Z,40.60
2018-07-26T14:53:38.406Z,41.00
2018-07-26T14:56:07.911Z,40.40
2018-07-26T14:58:38.036Z,40.70
2018-07-26T15:01:07.671Z,41.30
2018-07-26T15:03:37.311Z,41.70
2018-07-26T15:06:06.894Z,42.10
2018-07-26T15:08:36.262Z,42.50
2018-07-26T15:11:05.819Z,42.40
2018-07-26T15:13:35.634Z,42.30
2018-07-26T15:16:05.247Z,42.30
2018-07-26T15:18:34.231Z,43.00
2018-07-26T15:21:03.744Z,43.00
2018-07-26T15:23:33.513Z,42.70
2018-07-26T15:26:03.356Z,42.60
2018-07-26T15:31:01.424Z,42.80
2018-07-26T15:33:31.142Z,42.90
2018-07-26T15:36:01.186Z,43.50
2018-07-26T15:38:31.037Z,42.60
2018-07-26T15:41:00.893Z,42.40
2018-07-26T15:43:30.965Z,42.50
2018-07-26T15:46:01.160Z,43.60
2018-07-26T15:48:31.182Z,43.10
2018-07-26T15:51:00.392Z,42.60
2018-07-26T15:53:30.614Z,43.10
2018-07-26T15:55:59.793Z,42.60
2018-07-26T15:58:29.688Z,43.00
2018-07-26T16:00:58.949Z,43.50
2018-07-26T16:03:28.127Z,43.20
2018-07-26T16:05:58.158Z,42.30
2018-07-26T16:08:27.610Z,43.40
2018-07-26T16:10:57.153Z,44.20
2018-07-26T16:13:26.639Z,45.00
2018-07-26T16:15:56.233Z,45.30
2018-07-26T16:18:25.699Z,45.10
2018-07-26T16:20:55.394Z,45.30
2018-07-26T16:23:24.838Z,45.60
2018-07-26T16:25:54.341Z,45.70
2018-07-26T16:28:23.509Z,45.80
2018-07-26T16:30:52.646Z,45.30
2018-07-26T16:33:22.509Z,45.20
2018-07-26T16:35:51.979Z,45.30
2018-07-26T16:38:21.226Z,45.50
2018-07-26T16:40:50.410Z,45.10
2018-07-26T16:43:19.649Z,45.10
2018-07-26T16:45:49.412Z,44.80
2018-07-26T16:48:18.582Z,45.20
2018-07-26T16:50:47.670Z,45.30
2018-07-26T16:53:17.159Z,44.60
2018-07-26T16:55:46.665Z,45.20
2018-07-26T16:58:16.568Z,45.80
2018-07-26T17:03:15.458Z,46.40
2018-07-26T17:05:44.610Z,46.60
2018-07-26T17:08:13.817Z,46.20
2018-07-26T17:10:43.003Z,46.10
2018-07-26T17:13:11.932Z,46.80
2018-07-26T17:15:41.659Z,47.10
2018-07-26T17:18:11.110Z,47.40
2018-07-26T17:20:40.626Z,47.60
2018-07-26T17:23:10.472Z,47.60
2018-07-26T17:25:39.990Z,47.50
2018-07-26T17:28:09.450Z,47.40
2018-07-26T17:30:39.257Z,47.80
2018-07-26T17:33:08.384Z,48.10
2018-07-26T17:35:38.193Z,48.40
2018-07-26T17:38:07.579Z,49.20
2018-07-26T17:40:36.755Z,49.70
2018-07-26T17:43:06.245Z,49.90
2018-07-26T17:45:35.693Z,50.10
2018-07-26T17:48:06.259Z,49.90
2018-07-26T17:50:36.379Z,49.00
2018-07-26T17:53:06.475Z,49.40
2018-07-26T17:55:35.915Z,49.80
2018-07-26T17:58:05.456Z,50.10
2018-07-26T18:00:34.998Z,50.30
2018-07-26T18:03:04.456Z,51.00
2018-07-26T18:05:34.302Z,50.70
2018-07-26T18:08:03.577Z,51.10
2018-07-26T18:10:33.069Z,51.40
2018-07-26T18:13:02.389Z,51.70
2018-07-26T18:15:32.029Z,51.40
2018-07-26T18:18:01.823Z,51.90
2018-07-26T18:20:31.365Z,52.20
2018-07-26T18:23:01.189Z,52.40
2018-07-26T18:25:31.094Z,52.70
2018-07-26T18:28:01.443Z,52.70
2018-07-26T18:30:31.278Z,52.80
2018-07-26T18:33:01.217Z,52.70
2018-07-26T18:35:30.284Z,53.00
2018-07-26T18:40:29.130Z,52.80
2018-07-26T18:42:59.262Z,53.40
2018-07-26T18:45:28.644Z,53.90
2018-07-26T18:47:58.094Z,53.70
2018-07-26T18:50:27.741Z,53.90
2018-07-26T18:52:56.869Z,54.20
2018-07-26T18:55:26.932Z,53.70
2018-07-26T18:57:56.463Z,54.20
2018-07-26T19:00:26.061Z,54.50
2018-07-26T19:02:55.539Z,54.60
2018-07-26T19:05:25.091Z,54.80
2018-07-26T19:07:54.572Z,54.80
2018-07-26T19:10:24.159Z,54.90
2018-07-26T19:12:53.614Z,55.20
2018-07-26T19:15:23.600Z,55.40
2018-07-26T19:17:53.504Z,55.50
2018-07-26T19:20:22.972Z,55.60
2018-07-26T19:22:52.476Z,55.90
2018-07-26T19:25:23.352Z,56.10
2018-07-26T19:27:52.848Z,56.30
2018-07-26T19:30:22.060Z,56.70
2018-07-26T19:32:51.650Z,56.90
2018-07-26T19:35:21.506Z,57.10
2018-07-26T19:37:51.271Z,57.10
2018-07-26T19:40:21.171Z,58.00
2018-07-26T19:42:51.058Z,57.70
2018-07-26T19:45:20.581Z,57.80
2018-07-26T19:47:49.984Z,58.00
2018-07-26T19:50:19.341Z,58.10
2018-07-26T19:52:48.874Z,58.30
2018-07-26T19:55:18.319Z,58.80
2018-07-26T19:57:47.549Z,58.70
2018-07-26T20:00:17.111Z,59.10
2018-07-26T20:02:46.657Z,59.00
2018-07-26T20:05:16.382Z,59.20
2018-07-26T20:10:15.277Z,59.60
2018-07-26T20:12:44.584Z,59.70
2018-07-26T20:17:42.622Z,59.60
2018-07-26T20:20:12.532Z,59.70
2018-07-26T20:22:41.867Z,59.80
2018-07-26T20:25:11.007Z,59.90
2018-07-26T20:27:40.959Z,60.00
2018-07-26T20:30:10.810Z,60.10
2018-07-26T20:32:40.178Z,60.10
2018-07-26T20:35:10.003Z,60.20
2018-07-26T20:37:39.275Z,60.40
2018-07-26T20:40:09.887Z,60.60
2018-07-26T20:42:39.343Z,60.60
2018-07-26T20:45:10.576Z,60.80
2018-07-26T20:47:41.798Z,60.90
2018-07-26T20:50:11.332Z,61.10
2018-07-26T20:52:41.174Z,61.30
2018-07-26T20:55:10.996Z,61.50
2018-07-26T20:57:40.438Z,61.60
2018-07-26T21:00:11.158Z,62.00
2018-07-26T21:02:40.843Z,62.00
2018-07-26T21:05:10.526Z,62.00
2018-07-26T21:07:40.011Z,62.30
2018-07-26T21:10:10.573Z,62.70
2018-07-26T21:12:40.072Z,62.80
2018-07-26T21:15:10.090Z,63.20
2018-07-26T21:17:39.320Z,62.80
2018-07-26T21:20:08.793Z,62.50
2018-07-26T21:22:37.950Z,62.60
2018-07-26T21:25:07.113Z,62.70
2018-07-26T21:27:36.327Z,63.40
2018-07-26T21:30:06.606Z,62.80
2018-07-26T21:32:36.333Z,63.40
2018-07-26T21:35:06.671Z,62.70
2018-07-26T21:37:36.389Z,63.30
2018-07-26T21:40:05.986Z,63.20
2018-07-26T21:42:35.994Z,62.90
2018-07-26T21:45:05.732Z,63.30
2018-07-26T21:47:34.869Z,63.10
2018-07-26T21:50:04.542Z,62.30
2018-07-26T21:52:34.347Z,62.50
2018-07-26T21:55:03.523Z,61.40
2018-07-26T21:57:32.640Z,61.20
2018-07-26T22:00:02.478Z,61.20
2018-07-26T22:02:31.413Z,60.80
2018-07-26T22:05:01.379Z,60.30
2018-07-26T22:07:30.971Z,60.30
2018-07-26T22:10:00.419Z,60.30
2018-07-26T22:12:29.720Z,60.40
2018-07-26T22:14:59.570Z,60.70
2018-07-26T22:17:28.661Z,60.60
2018-07-26T22:19:57.783Z,61.00
2018-07-26T22:22:27.647Z,61.30
2018-07-26T22:24:57.114Z,60.80
2018-07-26T22:27:26.705Z,60.80
2018-07-26T22:29:56.543Z,61.00
2018-07-26T22:32:26.126Z,61.60
2018-07-26T22:34:55.911Z,62.10
2018-07-26T22:37:25.452Z,62.30
2018-07-26T22:39:55.708Z,62.30
2018-07-26T22:42:25.221Z,63.10
2018-07-26T22:44:54.479Z,63.20
2018-07-26T22:47:24.044Z,63.60
2018-07-26T22:49:53.248Z,64.10
2018-07-26T22:52:23.065Z,64.50
2018-07-26T22:54:52.812Z,64.90
2018-07-26T22:57:22.241Z,65.10
2018-07-26T22:59:52.047Z,65.70
2018-07-26T23:02:21.531Z,66.10
2018-07-26T23:04:51.328Z,66.80
2018-07-26T23:07:20.839Z,67.30
2018-07-26T23:09:50.311Z,67.60
2018-07-26T23:12:19.115Z,67.90
2018-07-26T23:14:48.590Z,68.50
2018-07-26T23:17:18.035Z,68.90
2018-07-26T23:19:47.561Z,69.30
2018-07-26T23:22:17.061Z,69.90
2018-07-26T23:24:46.679Z,70.50
2018-07-26T23:27:15.774Z,71.20
2018-07-26T23:29:45.665Z,71.70
2018-07-26T23:32:15.143Z,72.20
2018-07-26T23:34:44.590Z,72.70
2018-07-26T23:37:13.826Z,73.10
2018-07-26T23:39:43.670Z,73.90
2018-07-26T23:42:12.994Z,74.40
2018-07-26T23:44:42.634Z,75.60
2018-07-26T23:47:12.473Z,76.60
2018-07-26T23:49:42.474Z,78.00
2018-07-26T23:52:12.345Z,80.40
2018-07-26T23:54:41.857Z,82.10
2018-07-26T23:57:11.398Z,84.50
2018-07-26T23:59:41.013Z,86.80
